Time;durP1;ratioP1;P1;durP2;ratioP2;P2;SDS_P1;SDS_P2;PMS_P1;PMS_P2;Temp;Humidity;BMP_temperature;BMP_pressure;BME280_temperature;BME280_humidity;BME280_pressure;Samples;Min_cycle;Max_cycle;Signal;HPM_P1;HPM_P2
2023/03/12 00:01:43;;;;;;;1.37;0.53;;;;;;;10.55;56.11;97741.00;6160671;23;20147;-91
2023/03/12 00:04:08;;;;;;;0.60;0.30;;;;;;;10.60;55.35;97754.59;6158535;23;20187;-90
2023/03/12 00:06:37;;;;;;;2.80;0.60;;;;;;;10.43;55.66;97750.59;6158405;23;20178;-94
2023/03/12 00:09:08;;;;;;;0.70;0.40;;;;;;;10.34;55.65;97753.06;6158180;23;20258;-91
2023/03/12 00:11:55;;;;;;;0.47;0.30;;;;;;;10.33;55.69;97759.25;6159338;23;20546;-93
2023/03/12 00:14:31;;;;;;;0.10;0.10;;;;;;;10.51;54.44;97757.06;6162023;23;20216;-92
2023/03/12 00:16:58;;;;;;;1.00;0.40;;;;;;;10.42;54.92;97771.69;6159114;23;20165;-94
2023/03/12 00:19:27;;;;;;;0.70;0.40;;;;;;;10.46;55.01;97779.19;6158193;23;20170;-93
2023/03/12 00:21:53;;;;;;;0.87;0.40;;;;;;;10.42;54.67;97775.13;6158339;23;20162;-90
2023/03/12 00:24:19;;;;;;;8.93;0.60;;;;;;;10.48;54.15;97782.53;6157994;23;20215;-91
2023/03/12 00:26:53;;;;;;;0.67;0.30;;;;;;;10.51;54.71;97783.28;6161309;23;20165;-93
2023/03/12 00:29:32;;;;;;;1.33;0.50;;;;;;;10.53;54.74;97778.75;6163467;23;20182;-93
2023/03/12 00:34:56;;;;;;;2.57;1.03;;;;;;;10.40;54.85;97768.34;6161722;23;20190;-93
2023/03/12 00:40:58;;;;;;;3.00;0.50;;;;;;;10.16;54.15;97762.28;6140731;23;20193;-91
2023/03/12 00:43:23;;;;;;;1.33;0.87;;;;;;;9.77;55.76;97755.47;6156885;23;20174;-91
2023/03/12 00:45:49;;;;;;;2.47;0.60;;;;;;;10.03;54.88;97770.16;6158269;23;20226;-94
2023/03/12 00:48:14;;;;;;;0.40;0.33;;;;;;;9.57;55.82;97763.88;6158243;23;20591;-94
2023/03/12 00:50:46;;;;;;;1.43;0.47;;;;;;;9.48;54.78;97777.63;6156960;23;20329;-90
2023/03/12 00:53:19;;;;;;;1.23;0.43;;;;;;;9.62;54.55;97780.91;6157804;23;20154;-92
2023/03/12 00:55:54;;;;;;;;;;;;;;;;;;;;;
2023/03/12 00:58:20;;;;;;;1.63;0.77;;;;;;;9.46;54.83;97782.94;6157775;23;20570;-89
2023/03/12 01:00:45;;;;;;;1.40;0.70;;;;;;;9.58;53.75;97792.56;6157935;23;20183;-94
2023/03/12 01:03:17;;;;;;;0.50;0.23;;;;;;;9.54;53.66;97805.97;6157670;23;20190;-94
2023/03/12 01:05:45;;;;;;;1.00;0.57;;;;;;;9.63;53.13;97807.94;6158556;23;20150;-94
2023/03/12 01:08:14;;;;;;;1.37;0.60;;;;;;;9.67;53.37;97814.63;6159870;23;20170;-94
2023/03/12 01:10:42;;;;;;;0.90;0.50;;;;;;;9.75;53.58;97822.75;6159744;23;20221;-96
2023/03/12 01:13:14;;;;;;;1.97;0.47;;;;;;;9.75;54.12;97838.44;6161498;23;20147;-93
2023/03/12 01:15:39;;;;;;;1.10;0.50;;;;;;;10.04;53.13;97832.00;6160717;23;20567;-94
2023/03/12 01:18:08;;;;;;;1.97;0.80;;;;;;;9.96;53.07;97841.38;6161440;23;20218;-96
2023/03/12 01:20:39;;;;;;;1.47;0.60;;;;;;;9.90;53.29;97850.50;6160558;23;20242;-96
2023/03/12 01:23:04;;;;;;;2.47;0.70;;;;;;;9.86;53.67;97852.47;6160814;23;20174;-94
2023/03/12 01:25:32;;;;;;;0.73;0.40;;;;;;;9.69;53.09;97863.28;6159337;23;20590;-92
2023/03/12 01:27:58;;;;;;;1.63;0.70;;;;;;;9.56;54.04;97872.06;6157808;23;20257;-95
2023/03/12 01:30:24;;;;;;;1.30;0.43;;;;;;;9.72;53.66;97878.75;6158430;23;20238;-94
2023/03/12 01:32:53;;;;;;;2.67;0.70;;;;;;;9.75;53.56;97870.69;6163043;23;20208;-95
2023/03/12 01:35:18;;;;;;;5.77;0.97;;;;;;;9.77;53.46;97887.13;6161684;23;20158;-96
2023/03/12 01:37:44;;;;;;;1.57;0.63;;;;;;;9.95;53.00;97887.63;6161403;23;20154;-95
2023/03/12 01:40:15;;;;;;;0.53;0.33;;;;;;;10.07;52.24;97897.25;6161132;23;20605;-92
2023/03/12 01:42:50;;;;;;;3.50;0.77;;;;;;;10.26;52.01;97904.66;6160852;23;20174;-93
2023/03/12 01:45:53;;;;;;;2.30;0.30;;;;;;;10.21;51.50;97909.41;6161617;23;20142;-94
2023/03/12 01:48:19;;;;;;;0.83;0.53;;;;;;;10.33;51.23;97919.00;6161172;23;20212;-93
2023/03/12 01:50:44;;;;;;;1.07;0.57;;;;;;;10.32;50.57;97914.72;6161542;23;20154;-92
2023/03/12 01:53:10;;;;;;;4.57;0.57;;;;;;;9.98;50.84;97916.22;6160943;23;20225;-92
2023/03/12 01:55:36;;;;;;;0.90;0.50;;;;;;;9.82;51.74;97907.75;6160747;23;20158;-92
2023/03/12 01:58:04;;;;;;;1.00;0.50;;;;;;;9.61;51.81;97914.44;6162645;23;20454;-93
2023/03/12 02:00:30;;;;;;;0.97;0.60;;;;;;;9.44;51.67;97912.97;6161798;23;20196;-94
2023/03/12 02:02:59;;;;;;;0.80;0.53;;;;;;;9.47;51.79;97907.53;6161615;23;20178;-94
2023/03/12 02:05:42;;;;;;;0.90;0.43;;;;;;;9.42;51.80;97898.31;6161171;23;20209;-91
2023/03/12 02:08:09;;;;;;;8.23;0.63;;;;;;;9.31;51.26;97895.59;6161411;23;20154;-95
2023/03/12 02:10:40;;;;;;;1.40;0.80;;;;;;;9.26;51.54;97903.75;6161695;23;20157;-94
2023/03/12 02:13:08;;;;;;;0.83;0.57;;;;;;;9.26;51.71;97898.50;6161910;23;20143;-94
2023/03/12 02:15:35;;;;;;;1.10;0.50;;;;;;;9.21;51.91;97898.84;6161339;23;20595;-93
2023/03/12 02:18:10;;;;;;;1.33;0.93;;;;;;;8.81;52.39;97904.16;6162097;23;20164;-94
2023/03/12 02:21:01;;;;;;;3.20;0.83;;;;;;;8.74;52.96;97906.34;6162300;23;20536;-95
2023/03/12 02:23:35;;;;;;;0.80;0.60;;;;;;;8.84;52.60;97924.84;6160669;23;20181;-93
2023/03/12 02:26:07;;;;;;;1.27;0.70;;;;;;;8.89;51.91;97926.25;6187339;23;20137;-94
2023/03/12 02:28:41;;;;;;;1.87;0.90;;;;;;;9.04;51.58;97932.25;6161083;23;20146;-95
2023/03/12 02:31:07;;;;;;;1.70;0.63;;;;;;;9.02;51.43;97936.72;6160958;23;20175;-94
2023/03/12 02:33:40;;;;;;;1.47;0.93;;;;;;;8.98;50.71;97945.72;6160885;23;20156;-93
2023/03/12 02:36:09;;;;;;;6.50;0.77;;;;;;;9.03;49.84;97954.94;6160638;23;20151;-94
2023/03/12 02:38:40;;;;;;;0.37;0.33;;;;;;;8.91;49.79;97965.34;6160929;23;20156;-96
2023/03/12 02:41:12;;;;;;;3.00;0.80;;;;;;;8.75;49.62;97970.72;6186690;23;20137;-92
2023/03/12 02:43:40;;;;;;;1.60;0.70;;;;;;;8.86;48.17;97977.84;6160908;23;20268;-95
2023/03/12 02:46:24;;;;;;;1.27;0.70;;;;;;;9.10;47.08;97966.66;6165285;23;20564;-92
2023/03/12 02:48:56;;;;;;;1.03;0.60;;;;;;;8.89;46.81;97982.88;6163105;23;20146;-95
2023/03/12 02:51:27;;;;;;;3.40;0.70;;;;;;;8.96;46.25;97979.78;6161959;23;20231;-94
2023/03/12 02:53:55;;;;;;;3.30;0.80;;;;;;;8.77;45.84;97987.13;6161553;23;20157;-93
2023/03/12 02:56:26;;;;;;;3.40;1.43;;;;;;;8.47;46.31;97975.97;6161266;23;20165;-95
2023/03/12 02:58:52;;;;;;;2.43;0.90;;;;;;;8.46;46.97;97982.16;6160504;23;20164;-92
2023/03/12 03:01:19;;;;;;;1.70;0.63;;;;;;;8.22;46.64;97997.53;6160375;23;20571;-94
2023/03/12 03:03:48;;;;;;;2.80;0.90;;;;;;;8.16;47.02;98003.13;6160162;23;20609;-95
2023/03/12 03:06:14;;;;;;;2.90;1.40;;;;;;;8.38;47.04;98000.91;6160750;23;20636;-94
2023/03/12 03:08:40;;;;;;;3.03;0.97;;;;;;;8.15;46.94;98005.84;6160190;23;20154;-92
2023/03/12 03:11:23;;;;;;;1.40;0.77;;;;;;;8.20;46.35;98009.81;6160460;23;20163;-94
2023/03/12 03:13:55;;;;;;;1.50;0.83;;;;;;;8.34;46.67;98019.44;6161790;23;20135;-95
2023/03/12 03:16:21;;;;;;;2.20;1.13;;;;;;;8.10;45.98;98005.28;6161244;23;20147;-94
2023/03/12 03:18:46;;;;;;;2.30;1.17;;;;;;;7.88;46.94;98003.94;6162331;23;20578;-92
2023/03/12 03:21:15;;;;;;;4.50;1.43;;;;;;;8.03;46.72;98013.47;6160835;23;20151;-95
2023/03/12 03:23:46;;;;;;;2.93;0.90;;;;;;;7.97;46.78;98013.81;6161492;23;20239;-95
2023/03/12 03:26:11;;;;;;;1.97;1.00;;;;;;;8.00;45.97;98023.22;6160668;23;20150;-94
2023/03/12 03:28:37;;;;;;;5.73;2.10;;;;;;;7.95;46.77;98031.34;6160984;23;20179;-93
2023/03/12 03:31:03;;;;;;;13.50;1.63;;;;;;;8.12;46.38;98047.78;6160025;23;20202;-94
2023/03/12 03:33:31;;;;;;;1.47;0.90;;;;;;;8.04;46.32;98049.03;6160508;23;20702;-94
2023/03/12 03:35:58;;;;;;;2.80;1.13;;;;;;;8.00;46.36;98068.44;6186620;23;20246;-94
2023/03/12 03:38:25;;;;;;;2.30;1.57;;;;;;;7.79;46.27;98067.09;6160123;23;20159;-92
2023/03/12 03:40:52;;;;;;;2.27;1.30;;;;;;;7.64;46.67;98078.41;6159602;23;20155;-93
2023/03/12 03:43:17;;;;;;;2.90;1.53;;;;;;;7.69;46.57;98086.81;6185434;23;20179;-91
2023/03/12 03:45:45;;;;;;;2.40;1.40;;;;;;;7.67;46.39;98077.41;6159778;23;20193;-93
2023/03/12 03:48:11;;;;;;;3.13;1.43;;;;;;;7.55;47.38;98084.13;6185616;23;20161;-94
2023/03/12 03:50:38;;;;;;;3.17;1.93;;;;;;;7.71;46.58;98074.50;6159598;23;20151;-93
2023/03/12 03:53:05;;;;;;;3.50;1.37;;;;;;;7.73;47.03;98087.47;6160164;23;20472;-92
2023/03/12 03:55:36;;;;;;;3.53;2.07;;;;;;;7.83;46.51;98079.03;6159534;23;20158;-93
2023/03/12 03:58:01;;;;;;;5.43;1.77;;;;;;;7.80;46.84;98101.84;6160910;23;20147;-92
2023/03/12 04:00:27;;;;;;;1.77;1.17;;;;;;;7.52;47.26;98107.78;6161577;23;20155;-93
2023/03/12 04:02:54;;;;;;;2.87;1.53;;;;;;;7.68;47.18;98111.19;6161729;23;20186;-94
2023/03/12 04:05:20;;;;;;;3.07;1.70;;;;;;;7.85;47.16;98107.63;6161280;23;20165;-91
2023/03/12 04:07:46;;;;;;;4.27;2.03;;;;;;;7.52;47.51;98115.59;6161299;23;20178;-94
2023/03/12 04:10:11;;;;;;;3.23;1.90;;;;;;;7.60;47.08;98116.00;6161290;23;20169;-91
2023/03/12 04:12:39;;;;;;;3.40;1.77;;;;;;;7.67;46.53;98117.34;6161219;23;20483;-91
2023/03/12 04:15:05;;;;;;;2.27;1.50;;;;;;;7.73;46.79;98122.19;6160860;23;20162;-91
2023/03/12 04:17:31;;;;;;;3.57;2.17;;;;;;;7.62;46.40;98134.19;6161385;23;20453;-89
2023/03/12 04:19:59;;;;;;;2.53;1.50;;;;;;;7.64;46.67;98114.91;6161806;23;20154;-90
2023/03/12 04:22:24;;;;;;;2.63;1.63;;;;;;;7.80;46.05;98120.94;6160861;23;20234;-92
2023/03/12 04:24:49;;;;;;;3.40;1.60;;;;;;;7.69;46.08;98120.72;6186934;23;20146;-90
2023/03/12 04:27:15;;;;;;;2.27;1.10;;;;;;;7.59;45.87;98122.16;6161009;23;20155;-91
2023/03/12 04:29:40;;;;;;;3.43;1.20;;;;;;;7.45;45.99;98116.88;6161027;23;20497;-90
2023/03/12 04:32:06;;;;;;;3.07;1.80;;;;;;;7.50;45.87;98120.06;6160603;23;20253;-89
2023/03/12 04:34:32;;;;;;;1.90;1.20;;;;;;;7.26;46.41;98117.06;6161154;23;20154;-91
2023/03/12 04:37:01;;;;;;;2.10;1.23;;;;;;;7.15;46.04;98102.97;6160933;23;20226;-91
2023/03/12 04:39:26;;;;;;;2.37;1.33;;;;;;;7.25;45.80;98096.31;6161256;23;20465;-93
2023/03/12 04:41:51;;;;;;;3.37;1.30;;;;;;;7.44;45.11;98081.31;6161330;23;20214;-92
2023/03/12 04:44:17;;;;;;;2.97;1.13;;;;;;;7.23;45.43;98080.75;6160884;23;20480;-93
2023/03/12 04:46:42;;;;;;;2.23;1.10;;;;;;;7.25;45.44;98085.88;6160922;23;20220;-91
2023/03/12 04:49:08;;;;;;;2.13;1.10;;;;;;;7.16;44.84;98075.97;6160901;23;20246;-91
2023/03/12 04:51:33;;;;;;;3.03;1.40;;;;;;;7.24;44.75;98079.81;6186628;23;20157;-93
2023/03/12 04:53:59;;;;;;;5.40;1.00;;;;;;;7.34;44.97;98067.09;6160797;23;20161;-90
2023/03/12 04:56:25;;;;;;;3.13;1.53;;;;;;;7.24;43.44;98089.41;6160567;23;20169;-91
2023/03/12 04:58:51;;;;;;;1.10;0.80;;;;;;;7.29;43.96;98097.81;6160846;23;20150;-92
2023/03/12 05:01:26;;;;;;;2.63;0.97;;;;;;;7.20;43.45;98093.13;6160836;23;20150;-93
2023/03/12 05:03:53;;;;;;;1.87;0.97;;;;;;;7.20;43.80;98113.97;6186511;23;20178;-91
2023/03/12 05:06:19;;;;;;;1.93;1.10;;;;;;;7.47;43.48;98112.41;6160664;23;20236;-90
2023/03/12 05:08:45;;;;;;;3.63;1.20;;;;;;;7.70;43.42;98119.78;6186227;23;20289;-90
2023/03/12 05:11:11;;;;;;;2.77;0.80;;;;;;;7.43;43.29;98129.16;6186482;23;20151;-91
2023/03/12 05:13:36;;;;;;;3.33;1.00;;;;;;;7.46;43.09;98136.81;6186632;23;20153;-93
2023/03/12 05:16:02;;;;;;;2.40;0.93;;;;;;;7.62;43.44;98142.84;6160439;23;20596;-90
2023/03/12 05:18:30;;;;;;;2.53;1.40;;;;;;;7.80;43.46;98143.56;6160741;23;20165;-91
2023/03/12 05:21:05;;;;;;;1.07;0.60;;;;;;;7.81;42.14;98148.69;6187059;23;20153;-91
2023/03/12 05:23:30;;;;;;;2.43;1.03;;;;;;;7.93;41.93;98174.09;6160446;23;20181;-91
2023/03/12 05:25:56;;;;;;;2.83;1.27;;;;;;;8.14;42.24;98181.63;6160553;23;20189;-91
2023/03/12 05:28:26;;;;;;;2.93;0.90;;;;;;;8.37;41.99;98184.59;6160365;23;20151;-90
2023/03/12 05:30:59;;;;;;;1.10;0.77;;;;;;;8.43;41.54;98188.63;6161320;23;20147;-91
2023/03/12 05:33:26;;;;;;;3.47;1.10;;;;;;;8.28;42.04;98190.34;6160507;23;20154;-90
2023/03/12 05:35:54;;;;;;;2.87;1.07;;;;;;;8.03;42.07;98203.09;6160443;23;20158;-91
2023/03/12 05:38:23;;;;;;;2.50;1.17;;;;;;;8.02;42.21;98204.88;6160630;23;20234;-92
2023/03/12 05:40:53;;;;;;;4.63;0.90;;;;;;;8.49;41.75;98198.72;6186380;23;20151;-91
2023/03/12 05:43:19;;;;;;;7.03;1.30;;;;;;;9.52;39.74;98187.09;6160330;23;20179;-90
2023/03/12 05:45:44;;;;;;;7.67;1.00;;;;;;;10.04;38.81;98182.78;6186259;23;20161;-91
2023/03/12 05:48:10;;;;;;;1.73;0.90;;;;;;;10.27;38.09;98190.00;6186496;23;20169;-91
2023/03/12 05:50:35;;;;;;;3.20;0.87;;;;;;;10.89;37.04;98190.16;6186191;23;20204;-90
2023/03/12 05:53:00;;;;;;;1.37;0.83;;;;;;;11.56;36.33;98192.34;6160344;23;20222;-90
2023/03/12 05:55:36;;;;;;;2.17;0.83;;;;;;;12.38;34.43;98207.38;6160472;23;20159;-92
2023/03/12 05:58:03;;;;;;;2.40;0.93;;;;;;;13.51;33.04;98213.50;6160535;23;20169;-93
2023/03/12 06:00:45;;;;;;;2.87;1.20;;;;;;;14.35;31.80;98232.16;6160299;23;20200;-93
2023/03/12 06:03:11;;;;;;;2.73;0.93;;;;;;;14.92;30.42;98236.16;6160073;23;20170;-89
2023/03/12 06:05:37;;;;;;;3.27;1.10;;;;;;;15.09;30.14;98246.13;6160303;23;20193;-91
2023/03/12 06:08:03;;;;;;;3.67;1.33;;;;;;;15.85;30.13;98250.94;6160539;23;20598;-91
2023/03/12 06:10:29;;;;;;;1.73;1.00;;;;;;;16.20;29.30;98251.28;6185879;23;20517;-91
2023/03/12 06:12:56;;;;;;;2.37;1.10;;;;;;;17.67;27.50;98248.19;6159786;23;20174;-90
2023/03/12 06:15:21;;;;;;;3.53;1.43;;;;;;;18.70;26.19;98257.47;6186471;23;20154;-91
2023/03/12 06:17:47;;;;;;;1.73;1.00;;;;;;;18.11;26.62;98267.75;6185836;23;20241;-92
2023/03/12 06:20:12;;;;;;;1.60;0.90;;;;;;;17.98;25.90;98283.19;6159781;23;20151;-91
2023/03/12 06:22:38;;;;;;;4.73;1.10;;;;;;;17.79;26.06;98290.25;6185735;23;20179;-91
2023/03/12 06:25:04;;;;;;;2.57;0.90;;;;;;;17.91;26.21;98290.06;6159946;23;20477;-92
2023/03/12 06:27:30;;;;;;;2.10;1.00;;;;;;;18.58;25.46;98295.03;6159842;23;20155;-90
2023/03/12 06:29:56;;;;;;;4.30;1.20;;;;;;;18.39;25.81;98298.59;6159859;23;20238;-91
2023/03/12 06:32:21;;;;;;;3.27;1.10;;;;;;;17.98;25.45;98304.41;6159857;23;20267;-90
2023/03/12 06:34:47;;;;;;;1.53;0.73;;;;;;;17.49;26.76;98316.16;6186338;23;20226;-90
2023/03/12 06:37:12;;;;;;;4.30;0.90;;;;;;;17.64;26.35;98304.97;6159942;23;20160;-91
2023/03/12 06:39:38;;;;;;;8.37;2.40;;;;;;;16.86;27.16;98314.97;6159832;23;20154;-89
2023/03/12 06:42:04;;;;;;;2.43;1.00;;;;;;;16.06;28.35;98322.22;6186513;23;20151;-91
2023/03/12 06:44:30;;;;;;;4.27;1.30;;;;;;;15.46;28.87;98329.16;6186815;23;20264;-90
2023/03/12 06:46:56;;;;;;;1.60;0.80;;;;;;;15.11;29.35;98329.50;6186243;23;20158;-92
2023/03/12 06:49:21;;;;;;;2.90;1.43;;;;;;;15.45;29.36;98324.84;6161084;23;20481;-91
2023/03/12 06:51:47;;;;;;;2.37;1.47;;;;;;;14.98;29.55;98323.56;6160333;23;20574;-92
2023/03/12 06:54:12;;;;;;;2.23;1.23;;;;;;;14.49;30.67;98336.50;6160236;23;20189;-93
2023/03/12 06:56:39;;;;;;;2.50;1.20;;;;;;;14.36;30.48;98330.53;6159952;23;20157;-92
2023/03/12 06:59:04;;;;;;;1.57;1.00;;;;;;;14.11;30.86;98336.88;6160089;23;20160;-92
2023/03/12 07:01:30;;;;;;;2.00;0.90;;;;;;;13.07;31.92;98339.81;6160820;23;20239;-91
2023/03/12 07:03:55;;;;;;;2.97;1.07;;;;;;;13.49;31.61;98347.88;6159811;23;20285;-92
2023/03/12 07:06:22;;;;;;;4.87;1.00;;;;;;;13.63;31.39;98354.72;6159934;23;20168;-94
2023/03/12 07:08:48;;;;;;;3.57;1.30;;;;;;;13.14;31.36;98364.69;6186026;23;20150;-92
2023/03/12 07:11:19;;;;;;;2.27;0.93;;;;;;;13.03;32.84;98377.75;6160560;23;20577;-94
2023/03/12 07:13:45;;;;;;;2.20;0.87;;;;;;;12.26;32.77;98387.75;6161356;23;20185;-94
2023/03/12 07:16:14;;;;;;;1.60;0.80;;;;;;;12.10;33.46;98402.13;6160789;23;20162;-93
2023/03/12 07:18:39;;;;;;;2.63;1.17;;;;;;;12.16;33.49;98388.53;6159829;23;20194;-90
2023/03/12 07:21:05;;;;;;;1.63;1.00;;;;;;;12.01;33.84;98392.22;6159835;23;20166;-93
2023/03/12 07:23:31;;;;;;;4.23;0.97;;;;;;;11.83;34.99;98396.16;6160518;23;20205;-94
2023/03/12 07:25:56;;;;;;;2.57;1.00;;;;;;;11.84;35.20;98390.81;6161308;23;20154;-90
2023/03/12 07:28:22;;;;;;;2.27;0.80;;;;;;;11.97;34.74;98393.41;6160520;23;20156;-92
2023/03/12 07:31:07;;;;;;;1.53;0.67;;;;;;;11.90;35.12;98411.38;6160576;23;20154;-94
2023/03/12 07:33:33;;;;;;;5.27;1.23;;;;;;;11.85;35.01;98433.63;6162470;23;20162;-91
2023/03/12 07:35:59;;;;;;;2.03;1.10;;;;;;;11.55;34.42;98405.91;6162257;23;20216;-91
2023/03/12 07:38:24;;;;;;;3.13;1.57;;;;;;;11.35;35.45;98411.63;6188098;23;20216;-92
2023/03/12 07:40:51;;;;;;;1.90;0.90;;;;;;;11.36;34.82;98405.47;6162169;23;20161;-91
2023/03/12 07:43:17;;;;;;;1.60;0.90;;;;;;;11.48;35.31;98415.13;6187790;23;20178;-92
2023/03/12 07:45:43;;;;;;;1.50;0.80;;;;;;;11.49;35.34;98414.19;6161387;23;20281;-91
2023/03/12 07:48:08;;;;;;;3.57;1.50;;;;;;;11.52;36.02;98411.34;6161806;23;20475;-92
2023/03/12 07:50:35;;;;;;;1.20;0.70;;;;;;;11.89;35.58;98411.47;6187960;23;20217;-92
2023/03/12 07:53:00;;;;;;;2.20;0.97;;;;;;;11.85;34.75;98412.63;6161982;23;20162;-92
2023/03/12 07:55:26;;;;;;;3.00;1.20;;;;;;;11.56;35.38;98428.56;6161597;23;20160;-92
2023/03/12 07:57:52;;;;;;;7.63;1.37;;;;;;;11.82;35.97;98426.00;6161865;23;20169;-92
2023/03/12 08:00:18;;;;;;;3.03;1.10;;;;;;;11.76;35.87;98436.91;6161489;23;20162;-91
2023/03/12 08:02:43;;;;;;;2.33;1.07;;;;;;;11.69;35.97;98429.44;6161437;23;20544;-93
2023/03/12 08:05:10;;;;;;;3.20;1.27;;;;;;;11.70;35.36;98433.75;6161508;23;20174;-91
2023/03/12 08:07:35;;;;;;;1.70;0.70;;;;;;;12.02;35.54;98446.47;6162346;23;20170;-89
2023/03/12 08:10:04;;;;;;;2.60;0.73;;;;;;;12.59;35.01;98452.88;6187749;23;20154;-91
2023/03/12 08:12:29;;;;;;;2.37;0.80;;;;;;;12.40;34.10;98447.22;6161110;23;20155;-90
2023/03/12 08:14:55;;;;;;;3.33;1.17;;;;;;;12.23;34.58;98455.47;6188148;23;20160;-93
2023/03/12 08:17:20;;;;;;;2.07;0.90;;;;;;;12.07;35.77;98439.94;6163401;23;20156;-93
2023/03/12 08:19:46;;;;;;;4.27;1.20;;;;;;;11.98;36.02;98435.31;6162260;23;20165;-91
2023/03/12 08:22:12;;;;;;;1.57;0.53;;;;;;;12.45;35.36;98418.00;6189622;23;20235;-91
2023/03/12 08:24:37;;;;;;;2.80;1.13;;;;;;;12.09;33.91;98437.19;6162433;23;20211;-92
2023/03/12 08:27:03;;;;;;;4.83;1.53;;;;;;;12.21;34.35;98438.97;6161764;23;20153;-92
2023/03/12 08:29:28;;;;;;;3.53;1.10;;;;;;;12.39;34.54;98450.81;6161693;23;20583;-91
2023/03/12 08:31:54;;;;;;;4.87;1.43;;;;;;;12.14;33.88;98456.09;6161692;23;20214;-93
2023/03/12 08:34:20;;;;;;;3.30;0.80;;;;;;;12.45;33.69;98463.50;6161992;23;20177;-93
2023/03/12 08:36:48;;;;;;;5.23;1.03;;;;;;;12.71;33.66;98473.00;6161711;23;20191;-93
2023/03/12 08:39:13;;;;;;;2.33;1.40;;;;;;;12.82;32.62;98480.13;6162899;23;20596;-93
2023/03/12 08:41:39;;;;;;;2.50;1.00;;;;;;;12.44;32.72;98479.41;6162528;23;20239;-92
2023/03/12 08:44:05;;;;;;;4.00;1.40;;;;;;;12.74;33.80;98479.84;6187142;23;20266;-94
2023/03/12 08:46:37;;;;;;;2.67;1.10;;;;;;;12.93;32.15;98482.84;6161694;23;20628;-93
2023/03/12 08:49:02;;;;;;;1.67;1.00;;;;;;;13.04;32.50;98490.78;6161450;23;20167;-94
2023/03/12 08:51:28;;;;;;;1.37;0.90;;;;;;;13.12;34.28;98483.22;6161652;23;20244;-94
2023/03/12 08:53:54;;;;;;;1.67;0.90;;;;;;;12.97;33.16;98476.38;6162329;23;20153;-94
2023/03/12 08:56:20;;;;;;;1.73;0.77;;;;;;;13.16;33.57;98465.38;6161813;23;20158;-93
2023/03/12 08:58:45;;;;;;;2.57;1.17;;;;;;;13.00;33.83;98470.91;6162618;23;20517;-95
2023/03/12 09:01:12;;;;;;;1.47;0.77;;;;;;;12.92;34.32;98473.25;6162263;23;20160;-95
2023/03/12 09:03:40;;;;;;;1.47;0.80;;;;;;;13.35;33.82;98468.34;6161846;23;20185;-94
2023/03/12 09:06:15;;;;;;;3.93;0.73;;;;;;;12.89;32.27;98471.69;6161328;23;20162;-94
2023/03/12 09:08:42;;;;;;;2.97;1.20;;;;;;;13.16;33.93;98484.66;6161331;23;20149;-93
2023/03/12 09:11:13;;;;;;;2.63;0.80;;;;;;;13.49;32.27;98476.88;6161466;23;20196;-94
2023/03/12 09:13:39;;;;;;;2.30;0.80;;;;;;;13.16;31.66;98495.19;6163289;23;20182;-94
2023/03/12 09:16:06;;;;;;;0.93;0.60;;;;;;;13.26;31.03;98480.38;6187060;23;20224;-94
2023/03/12 09:18:32;;;;;;;1.07;0.67;;;;;;;13.14;31.01;98480.47;6161925;23;20230;-93
2023/03/12 09:20:57;;;;;;;1.83;0.57;;;;;;;13.38;31.80;98476.88;6161437;23;20157;-93
2023/03/12 09:23:24;;;;;;;2.30;0.87;;;;;;;13.44;32.50;98475.56;6160270;23;20185;-93
2023/03/12 09:25:51;;;;;;;4.67;1.00;;;;;;;13.53;33.94;98453.81;6160775;23;20152;-93
2023/03/12 09:28:16;;;;;;;2.77;0.93;;;;;;;13.63;32.11;98470.59;6159663;23;20586;-92
2023/03/12 09:30:45;;;;;;;1.57;0.73;;;;;;;13.47;32.17;98467.41;6187128;23;20148;-92
2023/03/12 09:33:11;;;;;;;3.33;0.83;;;;;;;13.77;31.47;98480.94;6160927;23;20142;-93
2023/03/12 09:35:37;;;;;;;2.13;0.77;;;;;;;14.09;31.59;98481.94;6162089;23;20180;-94
2023/03/12 09:38:04;;;;;;;2.47;1.00;;;;;;;13.90;32.18;98492.22;6157345;23;20593;-93
2023/03/12 09:40:35;;;;;;;2.93;0.67;;;;;;;13.91;31.79;98491.28;6159844;23;20162;-94
2023/03/12 09:43:09;;;;;;;1.60;0.93;;;;;;;14.00;32.55;98482.66;6186646;23;20166;-94
2023/03/12 09:45:42;;;;;;;1.57;0.70;;;;;;;13.92;33.04;98485.03;6161114;23;20237;-94
2023/03/12 09:48:14;;;;;;;4.80;1.03;;;;;;;14.25;31.91;98486.03;6160831;23;20546;-94
2023/03/12 09:50:43;;;;;;;2.10;1.03;;;;;;;14.48;31.24;98487.72;6161113;23;20153;-94
2023/03/12 09:53:32;;;;;;;2.73;0.90;;;;;;;14.08;31.20;98489.97;6161111;23;20192;-93
2023/03/12 09:55:58;;;;;;;6.57;3.63;;;;;;;14.14;31.70;98500.03;6187038;23;20160;-92
2023/03/12 09:58:30;;;;;;;1.93;0.90;;;;;;;14.40;31.96;98484.84;6160369;23;20506;-92
2023/03/12 10:01:23;;;;;;;1.87;0.93;;;;;;;14.63;31.36;98482.09;6160467;23;20169;-92
2023/03/12 10:07:34;;;;;;;1.87;0.97;;;;;;;14.56;29.42;98506.44;6187154;23;20225;-93
2023/03/12 10:10:15;;;;;;;5.17;2.43;;;;;;;14.80;30.18;98503.66;6158714;23;20159;-92
2023/03/12 10:13:08;;;;;;;2.10;0.73;;;;;;;14.63;30.51;98497.91;6160574;23;20153;-92
2023/03/12 10:16:05;;;;;;;2.87;0.90;;;;;;;15.01;29.76;98494.88;6161678;23;20154;-94
2023/03/12 10:19:01;;;;;;;;;;;;;;;;;;;;;
2023/03/12 10:22:28;;;;;;;2.30;0.93;;;;;;;14.82;30.56;98485.91;6187561;23;20202;-93
2023/03/12 10:25:04;;;;;;;2.07;0.80;;;;;;;14.57;30.07;98508.13;6161419;23;20221;-93
2023/03/12 10:27:36;;;;;;;4.27;1.10;;;;;;;14.83;29.76;98498.97;6161814;23;20142;-94
2023/03/12 10:30:02;;;;;;;3.30;1.07;;;;;;;14.80;31.54;98493.94;6161875;23;20578;-92
2023/03/12 10:32:40;;;;;;;3.73;1.00;;;;;;;14.64;30.23;98502.25;6161821;23;20239;-93
2023/03/12 10:35:44;;;;;;;3.33;0.90;;;;;;;15.08;29.93;98503.97;6163861;23;20142;-91
2023/03/12 10:38:28;;;;;;;2.07;0.83;;;;;;;15.52;29.91;98496.84;6184680;23;20235;-93
2023/03/12 10:41:11;;;;;;;4.30;1.00;;;;;;;15.55;29.64;98480.75;6161994;23;20167;-93
2023/03/12 10:43:36;;;;;;;1.90;0.73;;;;;;;15.50;29.38;98498.78;6162461;23;20175;-94
2023/03/12 10:46:58;;;;;;;;;;;;;;;;;;;;;
2023/03/12 11:32:56;;;;;;;;;;;;;;;;;;;;;
2023/03/12 11:46:33;;;;;;;1.90;0.90;;;;;;;16.58;27.80;98473.59;5877475;24;20187;-93
2023/03/12 14:23:31;;;;;;;1.27;0.60;;;;;;;15.80;28.66;98580.81;5906527;24;20508;-92
2023/03/12 14:45:33;;;;;;;;;;;;;;;;;;;;;
2023/03/12 14:52:02;;;;;;;;;;;;;;;;;;;;;
2023/03/12 15:02:21;;;;;;;;;;;;;;;;;;;;;
2023/03/12 15:12:00;;;;;;;;;;;;;;;;;;;;;
2023/03/12 15:19:07;;;;;;;1.93;0.70;;;;;;;15.37;29.82;98641.53;5772685;24;20292;-94
2023/03/12 15:25:33;;;;;;;2.37;0.93;;;;;;;15.32;29.89;98649.84;5844274;24;20221;-92
2023/03/12 15:28:32;;;;;;;;;;;;;;;;;;;;;
2023/03/12 15:41:10;;;;;;;;;;;;;;;;;;;;;
2023/03/12 15:44:15;;;;;;;2.80;1.10;;;;;;;15.10;30.11;98676.25;6068181;23;20267;-93
2023/03/12 15:46:52;;;;;;;4.33;1.50;;;;;;;14.82;30.81;98687.25;6067700;23;20168;-96
2023/03/12 15:49:28;;;;;;;2.33;1.10;;;;;;;14.79;30.94;98690.13;6068308;23;20180;-93
2023/03/12 15:52:29;;;;;;;2.23;1.00;;;;;;;14.72;31.00;98700.31;6044156;23;20228;-93
2023/03/12 15:55:26;;;;;;;;;;;;;;;;;;;;;
2023/03/12 15:58:34;;;;;;;2.17;0.93;;;;;;;14.44;30.99;98716.53;6070589;23;20239;-93
2023/03/12 16:04:44;;;;;;;3.63;0.90;;;;;;;14.02;32.22;98731.06;6038259;23;20206;-92
2023/03/12 16:07:13;;;;;;;1.70;0.63;;;;;;;14.06;32.01;98735.16;6074917;23;20238;-91
2023/03/12 16:09:46;;;;;;;1.77;1.00;;;;;;;14.03;31.64;98739.81;6073568;23;20223;-93
2023/03/12 16:12:29;;;;;;;;;;;;;;;;;;;;;
2023/03/12 16:15:02;;;;;;;4.77;1.57;;;;;;;14.11;32.03;98746.22;6099769;23;20600;-93
2023/03/12 16:17:37;;;;;;;2.90;1.43;;;;;;;14.12;31.95;98755.78;6074352;23;20152;-92
2023/03/12 16:20:25;;;;;;;2.13;1.00;;;;;;;13.94;32.18;98758.94;6073820;23;20569;-93
2023/03/12 16:22:53;;;;;;;2.20;1.00;;;;;;;13.91;31.86;98765.28;6073351;23;20216;-92
2023/03/12 16:25:21;;;;;;;3.70;1.10;;;;;;;13.93;32.26;98770.41;6074545;23;20201;-93
2023/03/12 16:27:54;;;;;;;1.10;0.60;;;;;;;13.43;33.23;98780.13;6073592;23;20191;-93
2023/03/12 16:30:35;;;;;;;1.57;0.90;;;;;;;13.53;32.85;98777.66;6098725;23;20566;-92
2023/03/12 16:33:03;;;;;;;2.63;0.90;;;;;;;13.53;32.86;98788.19;6098871;23;20152;-94
2023/03/12 16:35:32;;;;;;;1.10;0.70;;;;;;;13.58;32.86;98788.72;6073319;23;20164;-92
2023/03/12 16:38:01;;;;;;;3.57;1.00;;;;;;;13.57;32.34;98799.38;6073207;23;20228;-93
2023/03/12 16:40:32;;;;;;;2.30;1.10;;;;;;;13.54;32.75;98809.19;6073207;23;20166;-91
2023/03/12 16:43:02;;;;;;;2.33;0.90;;;;;;;13.35;33.17;98811.38;6073319;23;20183;-92
2023/03/12 16:45:29;;;;;;;3.43;1.13;;;;;;;13.37;32.75;98808.63;6073226;23;20167;-92